Cruise inventory

RV Jan Mayen JM8

Cruise plan

Cruise Info. 
Ship name (ship code)RV Jan Mayen (58JM)
Cruise identifierJM8
Cruise period1994-10-10 — 1994-10-14
StatusCompleted
PurposeResearch
ObjectivesICES Reference Number 1994 58 097
Chief scientistKurt Tande (University of Tromsø Norwegian College of Fishery Science)
ProjectOMEX
Ocean/sea areas 
GeneralNorwegian Sea
SpecificNorwegian Sea
Data held at BODC 
Series/Profiles 
8  Bottle station
Quality control flags
Chlorophyll pigment concentrations in water bodies
Silicate concentration parameters in the water column
Vertical spatial coordinates
Nitrate concentration parameters in the water column
Phaeopigment concentrations in the water column
Reference numbers
Phosphate concentration parameters in the water column
Quality control flags
Chlorophyll pigment concentrations in water bodies
Silicate concentration parameters in the water column
Vertical spatial coordinates
Nitrate concentration parameters in the water column
Phaeopigment concentrations in the water column
Reference numbers
Phosphate concentration parameters in the water column

BODC idDate/TimeLocationDoc.
12544521994-10-10 20:10 70° 19' 59" N  18° 56' 59" E  View metadata report for BODC series reference number 1254452
12544641994-10-11 01:10 70° 22' 0" N  18° 11' 59" E  View metadata report for BODC series reference number 1254464
12544761994-10-11 06:10 70° 24' 29" N  17° 18' 0" E  View metadata report for BODC series reference number 1254476
12544881994-10-11 07:10 70° 24' 42" N  17° 13' 0" E  View metadata report for BODC series reference number 1254488
16371761994-10-10 20:10 70° 19' 59" N  18° 56' 59" E  View metadata report for BODC series reference number 1637176
16371881994-10-11 01:10 70° 22' 0" N  18° 11' 59" E  View metadata report for BODC series reference number 1637188
16372071994-10-11 06:10 70° 24' 29" N  17° 18' 0" E  View metadata report for BODC series reference number 1637207
16372191994-10-11 07:10 70° 24' 42" N  17° 13' 0" E  View metadata report for BODC series reference number 1637219
50  CTD/STD cast
Density of the water column
Chlorophyll pigment concentrations in water bodies
Vertical spatial coordinates
Salinity of the water column
Temperature of the water column
Density of the water column
Chlorophyll pigment concentrations in water bodies
Vertical spatial coordinates
Salinity of the water column
Temperature of the water column

BODC idDate/TimeLocationDoc.
8925971994-10-13 14:00 69° 45' 0" N  16° 34' 59" E  View metadata report for BODC series reference number 892597
8926041994-10-13 14:00 69° 46' 59" N  16° 23' 59" E  View metadata report for BODC series reference number 892604
8926161994-10-13 15:00 69° 47' 59" N  16° 13' 59" E  View metadata report for BODC series reference number 892616
8926281994-10-13 16:00 69° 49' 59" N  16° 0' 0" E  View metadata report for BODC series reference number 892628
8926411994-10-13 18:00 69° 35' 30" N  15° 6' 18" E  View metadata report for BODC series reference number 892641
8926531994-10-13 19:00 69° 34' 41" N  15° 19' 59" E  View metadata report for BODC series reference number 892653
8926651994-10-13 19:00 69° 34' 0" N  15° 34' 0" E  View metadata report for BODC series reference number 892665
8926771994-10-13 20:00 69° 33' 29" N  15° 37' 0" E  View metadata report for BODC series reference number 892677
8926891994-10-13 20:00 69° 32' 59" N  15° 40' 0" E  View metadata report for BODC series reference number 892689
8926901994-10-13 21:00 69° 32' 59" N  15° 41' 59" E  View metadata report for BODC series reference number 892690
8927081994-10-13 21:00 69° 32' 59" N  15° 46' 0" E  View metadata report for BODC series reference number 892708
8927211994-10-13 22:00 69° 31' 59" N  15° 49' 0" E  View metadata report for BODC series reference number 892721
8927331994-10-13 22:00 69° 31' 59" N  15° 54' 0" E  View metadata report for BODC series reference number 892733
8927451994-10-13 23:00 69° 31' 59" N  16° 1' 0" E  View metadata report for BODC series reference number 892745
8927571994-10-14 04:00 69° 40' 0" N  17° 31' 0" E  View metadata report for BODC series reference number 892757
8927691994-10-14 05:00 69° 31' 59" N  18° 1' 59" E  View metadata report for BODC series reference number 892769
8927701994-10-14 06:00 69° 30' 0" N  18° 21' 24" E  View metadata report for BODC series reference number 892770
8927821994-10-10 23:00 70° 20' 59" N  18° 34' 59" E  View metadata report for BODC series reference number 892782
8927941994-10-11 03:00 70° 22' 59" N  17° 53' 59" E  View metadata report for BODC series reference number 892794
8928011994-10-11 05:00 70° 23' 30" N  17° 37' 59" E  View metadata report for BODC series reference number 892801
8928131994-10-12 16:00 69° 46' 0" N  17° 40' 0" E  View metadata report for BODC series reference number 892813
8928251994-10-12 17:00 69° 47' 59" N  17° 43' 0" E  View metadata report for BODC series reference number 892825
8928371994-10-12 17:00 69° 49' 59" N  17° 46' 0" E  View metadata report for BODC series reference number 892837
8928491994-10-12 18:00 69° 52' 0" N  17° 30' 0" E  View metadata report for BODC series reference number 892849
8928501994-10-12 19:00 69° 53' 35" N  17° 13' 0" E  View metadata report for BODC series reference number 892850
8928621994-10-12 23:00 69° 55' 0" N  16° 56' 59" E  View metadata report for BODC series reference number 892862
8928741994-10-13 01:00 69° 55' 59" N  16° 51' 0" E  View metadata report for BODC series reference number 892874
8928861994-10-13 01:00 69° 57' 0" N  16° 45' 0" E  View metadata report for BODC series reference number 892886
8928981994-10-13 01:00 69° 57' 0" N  16° 40' 59" E  View metadata report for BODC series reference number 892898
8929051994-10-13 02:00 69° 57' 29" N  16° 37' 59" E  View metadata report for BODC series reference number 892905
8929171994-10-13 03:00 69° 58' 0" N  16° 33' 0" E  View metadata report for BODC series reference number 892917
8929291994-10-13 03:00 69° 54' 18" N  16° 22' 59" E  View metadata report for BODC series reference number 892929
8929301994-10-13 04:00 69° 53' 24" N  16° 31' 0" E  View metadata report for BODC series reference number 892930
8929421994-10-13 05:00 69° 53' 6" N  16° 33' 17" E  View metadata report for BODC series reference number 892942
8929541994-10-13 05:00 69° 52' 30" N  16° 36' 0" E  View metadata report for BODC series reference number 892954
8929661994-10-13 06:00 69° 52' 0" N  16° 41' 59" E  View metadata report for BODC series reference number 892966
8929781994-10-13 06:00 69° 51' 29" N  16° 46' 59" E  View metadata report for BODC series reference number 892978
8929911994-10-13 07:00 69° 49' 59" N  17° 4' 0" E  View metadata report for BODC series reference number 892991
8930051994-10-13 08:00 69° 46' 59" N  17° 22' 59" E  View metadata report for BODC series reference number 893005
8930171994-10-13 10:00 69° 43' 59" N  17° 19' 59" E  View metadata report for BODC series reference number 893017
8930291994-10-13 11:00 69° 45' 0" N  17° 7' 59" E  View metadata report for BODC series reference number 893029
8930301994-10-13 12:00 69° 45' 0" N  16° 56' 59" E  View metadata report for BODC series reference number 893030
8930421994-10-13 12:00 69° 45' 0" N  16° 51' 0" E  View metadata report for BODC series reference number 893042
8930541994-10-13 13:00 69° 43' 59" N  16° 46' 59" E  View metadata report for BODC series reference number 893054
8930661994-10-13 13:00 69° 43' 59" N  16° 43' 59" E  View metadata report for BODC series reference number 893066
8925361994-10-10 20:00 70° 19' 59" N  18° 56' 59" E  View metadata report for BODC series reference number 892536
8925481994-10-11 01:00 70° 22' 0" N  18° 11' 59" E  View metadata report for BODC series reference number 892548
8925611994-10-11 06:00 70° 24' 29" N  17° 18' 0" E  View metadata report for BODC series reference number 892561
8925731994-10-11 07:00 70° 24' 42" N  17° 13' 0" E  View metadata report for BODC series reference number 892573
8925851994-10-13 13:00 69° 45' 0" N  16° 40' 59" E  View metadata report for BODC series reference number 892585
Discrete samples 
4  CTD frame plus rosette samplerTerrestrial detritus in the water column suspended particulate material
Particulate total and organic carbon concentrations in the water column
Particulate total and organic nitrogen concentrations in the water column
Zooplankton taxonomy-related abundance per unit volume of the water column
Density of the water column
Biological detritus in the water column suspended particulate material
Chlorophyll pigment concentrations in water bodies
Phytoplankton taxonomic abundance in water bodies
Silicate concentration parameters in the water column
Salinity of the water column
Macroalgae generic abundance in water bodies
Zooplankton non taxonomy-related abundance per unit volume of the water column
Nitrate concentration parameters in the water column
Temperature of the water column
Phaeopigment concentrations in the water column
Phytoplankton generic abundance in water bodies
Microzooplankton taxonomic abundance in water bodies
Phosphate concentration parameters in the water column